sensor_id;sensor_type;location;lat;lon;timestamp;temperature;humidity
2729;DHT22;1372;47.956;7.830;2024-03-29T00:00:11;7.90;99.90
2729;DHT22;1372;47.956;7.830;2024-03-29T00:02:39;7.90;99.90
2729;DHT22;1372;47.956;7.830;2024-03-29T00:05:06;7.70;99.90
2729;DHT22;1372;47.956;7.830;2024-03-29T00:07:34;7.60;99.90
2729;DHT22;1372;47.956;7.830;2024-03-29T00:10:01;7.50;99.90
2729;DHT22;1372;47.956;7.830;2024-03-29T00:12:29;7.40;99.90
2729;DHT22;1372;47.956;7.830;2024-03-29T00:15:16;7.30;99.90
2729;DHT22;1372;47.956;7.830;2024-03-29T00:17:43;7.20;99.90
2729;DHT22;1372;47.956;7.830;2024-03-29T00:20:11;7.30;99.90
2729;DHT22;1372;47.956;7.830;2024-03-29T00:22:38;7.30;99.90
2729;DHT22;1372;47.956;7.830;2024-03-29T00:25:06;7.30;99.90
2729;DHT22;1372;47.956;7.830;2024-03-29T00:27:35;7.10;99.90
2729;DHT22;1372;47.956;7.830;2024-03-29T00:30:02;7.00;99.90
2729;DHT22;1372;47.956;7.830;2024-03-29T00:32:29;7.00;99.90
2729;DHT22;1372;47.956;7.830;2024-03-29T00:34:56;6.90;99.90
2729;DHT22;1372;47.956;7.830;2024-03-29T00:37:24;6.70;99.90
2729;DHT22;1372;47.956;7.830;2024-03-29T00:39:51;6.70;99.90
2729;DHT22;1372;47.956;7.830;2024-03-29T00:42:19;6.80;99.90
2729;DHT22;1372;47.956;7.830;2024-03-29T00:44:47;6.80;99.90
2729;DHT22;1372;47.956;7.830;2024-03-29T00:47:15;6.70;99.90
2729;DHT22;1372;47.956;7.830;2024-03-29T00:49:42;6.70;99.90
2729;DHT22;1372;47.956;7.830;2024-03-29T00:52:09;6.70;99.90
2729;DHT22;1372;47.956;7.830;2024-03-29T00:54:35;6.60;99.90
2729;DHT22;1372;47.956;7.830;2024-03-29T00:57:03;6.70;99.90
2729;DHT22;1372;47.956;7.830;2024-03-29T00:59:30;6.70;99.90
2729;DHT22;1372;47.956;7.830;2024-03-29T01:01:59;6.80;99.90
2729;DHT22;1372;47.956;7.830;2024-03-29T01:04:26;6.80;99.90
2729;DHT22;1372;47.956;7.830;2024-03-29T01:06:53;6.90;99.90
2729;DHT22;1372;47.956;7.830;2024-03-29T01:09:21;7.00;99.90
2729;DHT22;1372;47.956;7.830;2024-03-29T01:11:49;7.00;99.90
2729;DHT22;1372;47.956;7.830;2024-03-29T01:14:22;7.00;99.90
2729;DHT22;1372;47.956;7.830;2024-03-29T01:16:49;6.90;99.90
2729;DHT22;1372;47.956;7.830;2024-03-29T01:19:18;7.00;99.90
2729;DHT22;1372;47.956;7.830;2024-03-29T01:21:46;7.00;99.90
2729;DHT22;1372;47.956;7.830;2024-03-29T01:24:13;7.10;99.90
2729;DHT22;1372;47.956;7.830;2024-03-29T01:26:40;7.20;99.90
2729;DHT22;1372;47.956;7.830;2024-03-29T01:29:07;7.10;99.90
2729;DHT22;1372;47.956;7.830;2024-03-29T01:31:34;7.20;99.90
2729;DHT22;1372;47.956;7.830;2024-03-29T01:34:01;7.10;99.90
2729;DHT22;1372;47.956;7.830;2024-03-29T01:36:29;7.20;99.90
2729;DHT22;1372;47.956;7.830;2024-03-29T01:38:57;7.40;99.90
2729;DHT22;1372;47.956;7.830;2024-03-29T01:41:24;7.60;99.90
2729;DHT22;1372;47.956;7.830;2024-03-29T01:43:53;7.70;99.90
2729;DHT22;1372;47.956;7.830;2024-03-29T01:46:23;7.70;99.90
2729;DHT22;1372;47.956;7.830;2024-03-29T01:48:56;8.50;99.90
2729;DHT22;1372;47.956;7.830;2024-03-29T01:51:26;9.00;99.90
2729;DHT22;1372;47.956;7.830;2024-03-29T01:53:56;9.40;99.90
2729;DHT22;1372;47.956;7.830;2024-03-29T01:56:24;9.40;99.90
2729;DHT22;1372;47.956;7.830;2024-03-29T01:58:54;9.10;99.90
2729;DHT22;1372;47.956;7.830;2024-03-29T02:01:22;9.10;99.90
2729;DHT22;1372;47.956;7.830;2024-03-29T02:03:51;9.00;99.90
2729;DHT22;1372;47.956;7.830;2024-03-29T02:06:19;9.00;99.90
2729;DHT22;1372;47.956;7.830;2024-03-29T02:08:51;9.10;99.90
2729;DHT22;1372;47.956;7.830;2024-03-29T02:11:21;9.30;99.90
2729;DHT22;1372;47.956;7.830;2024-03-29T02:13:50;9.50;99.90
2729;DHT22;1372;47.956;7.830;2024-03-29T02:16:18;9.60;99.90
2729;DHT22;1372;47.956;7.830;2024-03-29T02:18:46;9.90;99.90
2729;DHT22;1372;47.956;7.830;2024-03-29T02:21:15;10.10;99.90
2729;DHT22;1372;47.956;7.830;2024-03-29T02:23:44;10.70;99.90
2729;DHT22;1372;47.956;7.830;2024-03-29T02:26:18;11.40;99.90
2729;DHT22;1372;47.956;7.830;2024-03-29T02:28:46;11.80;99.90
2729;DHT22;1372;47.956;7.830;2024-03-29T02:31:14;12.00;99.90
2729;DHT22;1372;47.956;7.830;2024-03-29T02:33:42;12.10;99.90
2729;DHT22;1372;47.956;7.830;2024-03-29T02:36:10;12.10;99.90
2729;DHT22;1372;47.956;7.830;2024-03-29T02:38:40;12.40;99.90
2729;DHT22;1372;47.956;7.830;2024-03-29T02:41:08;12.50;99.90
2729;DHT22;1372;47.956;7.830;2024-03-29T02:43:37;12.50;99.90
2729;DHT22;1372;47.956;7.830;2024-03-29T02:46:05;12.60;99.90
2729;DHT22;1372;47.956;7.830;2024-03-29T02:48:33;12.60;99.90
2729;DHT22;1372;47.956;7.830;2024-03-29T02:51:00;12.50;99.90
2729;DHT22;1372;47.956;7.830;2024-03-29T02:53:29;12.50;99.90
2729;DHT22;1372;47.956;7.830;2024-03-29T02:55:56;12.50;99.90
2729;DHT22;1372;47.956;7.830;2024-03-29T02:58:24;12.50;99.90
2729;DHT22;1372;47.956;7.830;2024-03-29T03:00:52;12.30;99.90
2729;DHT22;1372;47.956;7.830;2024-03-29T03:03:26;12.20;99.90
2729;DHT22;1372;47.956;7.830;2024-03-29T03:05:53;12.10;99.90
2729;DHT22;1372;47.956;7.830;2024-03-29T03:08:21;12.00;99.90
2729;DHT22;1372;47.956;7.830;2024-03-29T03:11:06;11.90;99.90
2729;DHT22;1372;47.956;7.830;2024-03-29T03:13:34;12.00;99.90
2729;DHT22;1372;47.956;7.830;2024-03-29T03:16:04;12.20;99.90
2729;DHT22;1372;47.956;7.830;2024-03-29T03:18:33;12.40;99.90
2729;DHT22;1372;47.956;7.830;2024-03-29T03:21:00;12.40;99.90
2729;DHT22;1372;47.956;7.830;2024-03-29T03:23:29;12.30;99.90
2729;DHT22;1372;47.956;7.830;2024-03-29T03:25:58;12.20;99.90
2729;DHT22;1372;47.956;7.830;2024-03-29T03:28:26;12.10;99.90
2729;DHT22;1372;47.956;7.830;2024-03-29T03:30:55;12.00;99.90
2729;DHT22;1372;47.956;7.830;2024-03-29T03:33:23;12.00;99.90
2729;DHT22;1372;47.956;7.830;2024-03-29T03:35:51;12.10;99.90
2729;DHT22;1372;47.956;7.830;2024-03-29T03:38:18;12.10;99.90
2729;DHT22;1372;47.956;7.830;2024-03-29T03:40:46;12.20;99.90
2729;DHT22;1372;47.956;7.830;2024-03-29T03:43:14;12.10;99.90
2729;DHT22;1372;47.956;7.830;2024-03-29T03:45:42;12.00;99.90
2729;DHT22;1372;47.956;7.830;2024-03-29T03:48:10;11.80;99.90
2729;DHT22;1372;47.956;7.830;2024-03-29T03:50:40;11.70;99.90
2729;DHT22;1372;47.956;7.830;2024-03-29T03:53:07;11.70;99.90
2729;DHT22;1372;47.956;7.830;2024-03-29T03:55:36;11.70;99.90
2729;DHT22;1372;47.956;7.830;2024-03-29T03:58:03;11.80;99.90
2729;DHT22;1372;47.956;7.830;2024-03-29T04:00:31;11.90;99.90
2729;DHT22;1372;47.956;7.830;2024-03-29T04:02:58;12.20;99.90
2729;DHT22;1372;47.956;7.830;2024-03-29T04:05:26;12.50;99.90
2729;DHT22;1372;47.956;7.830;2024-03-29T04:07:55;12.80;99.90
2729;DHT22;1372;47.956;7.830;2024-03-29T04:10:23;13.00;99.90
2729;DHT22;1372;47.956;7.830;2024-03-29T04:12:50;13.20;99.90
2729;DHT22;1372;47.956;7.830;2024-03-29T04:15:18;13.20;99.90
2729;DHT22;1372;47.956;7.830;2024-03-29T04:17:45;13.20;99.90
2729;DHT22;1372;47.956;7.830;2024-03-29T04:20:13;13.30;99.90
2729;DHT22;1372;47.956;7.830;2024-03-29T04:22:40;13.30;99.90
2729;DHT22;1372;47.956;7.830;2024-03-29T04:25:11;13.20;99.90
2729;DHT22;1372;47.956;7.830;2024-03-29T04:27:38;13.10;99.90
2729;DHT22;1372;47.956;7.830;2024-03-29T04:30:07;13.00;99.90
2729;DHT22;1372;47.956;7.830;2024-03-29T04:32:34;13.00;99.90
2729;DHT22;1372;47.956;7.830;2024-03-29T04:35:02;13.10;99.90
2729;DHT22;1372;47.956;7.830;2024-03-29T04:37:30;13.10;99.90
2729;DHT22;1372;47.956;7.830;2024-03-29T04:39:58;13.20;99.90
2729;DHT22;1372;47.956;7.830;2024-03-29T04:42:28;13.50;99.90
2729;DHT22;1372;47.956;7.830;2024-03-29T04:44:56;13.60;99.90
2729;DHT22;1372;47.956;7.830;2024-03-29T04:47:24;13.60;99.90
2729;DHT22;1372;47.956;7.830;2024-03-29T04:49:52;13.50;99.90
2729;DHT22;1372;47.956;7.830;2024-03-29T04:52:25;13.50;99.90
2729;DHT22;1372;47.956;7.830;2024-03-29T04:54:53;13.50;99.90
2729;DHT22;1372;47.956;7.830;2024-03-29T04:57:21;13.50;99.90
2729;DHT22;1372;47.956;7.830;2024-03-29T04:59:51;13.50;99.90
2729;DHT22;1372;47.956;7.830;2024-03-29T05:02:19;13.30;99.90
2729;DHT22;1372;47.956;7.830;2024-03-29T05:04:47;13.40;99.90
2729;DHT22;1372;47.956;7.830;2024-03-29T05:07:15;13.50;99.90
2729;DHT22;1372;47.956;7.830;2024-03-29T05:09:43;13.40;99.90
2729;DHT22;1372;47.956;7.830;2024-03-29T05:12:11;13.30;99.90
2729;DHT22;1372;47.956;7.830;2024-03-29T05:14:40;13.10;99.90
2729;DHT22;1372;47.956;7.830;2024-03-29T05:17:10;12.90;99.90
2729;DHT22;1372;47.956;7.830;2024-03-29T05:19:38;12.70;99.90
2729;DHT22;1372;47.956;7.830;2024-03-29T05:22:06;12.40;99.90
2729;DHT22;1372;47.956;7.830;2024-03-29T05:24:34;12.20;99.90
2729;DHT22;1372;47.956;7.830;2024-03-29T05:27:01;12.10;99.90
2729;DHT22;1372;47.956;7.830;2024-03-29T05:29:30;12.00;99.90
2729;DHT22;1372;47.956;7.830;2024-03-29T05:31:58;12.10;99.90
2729;DHT22;1372;47.956;7.830;2024-03-29T05:34:27;12.10;99.90
2729;DHT22;1372;47.956;7.830;2024-03-29T05:36:55;12.30;99.90
2729;DHT22;1372;47.956;7.830;2024-03-29T05:39:23;12.40;99.90
2729;DHT22;1372;47.956;7.830;2024-03-29T05:41:51;12.50;99.90
2729;DHT22;1372;47.956;7.830;2024-03-29T05:44:20;12.50;99.90
2729;DHT22;1372;47.956;7.830;2024-03-29T05:46:49;12.50;99.90
2729;DHT22;1372;47.956;7.830;2024-03-29T05:49:17;12.50;99.90
2729;DHT22;1372;47.956;7.830;2024-03-29T05:51:46;12.50;99.90
2729;DHT22;1372;47.956;7.830;2024-03-29T05:54:14;12.50;99.90
2729;DHT22;1372;47.956;7.830;2024-03-29T05:56:42;12.40;99.90
2729;DHT22;1372;47.956;7.830;2024-03-29T05:59:10;12.40;99.90
2729;DHT22;1372;47.956;7.830;2024-03-29T06:01:39;12.30;99.90
2729;DHT22;1372;47.956;7.830;2024-03-29T06:04:08;12.30;99.90
2729;DHT22;1372;47.956;7.830;2024-03-29T06:06:42;12.20;99.90
2729;DHT22;1372;47.956;7.830;2024-03-29T06:09:11;12.10;99.90
2729;DHT22;1372;47.956;7.830;2024-03-29T06:11:39;12.00;99.90
2729;DHT22;1372;47.956;7.830;2024-03-29T06:14:07;11.90;99.90
2729;DHT22;1372;47.956;7.830;2024-03-29T06:16:52;11.80;99.90
2729;DHT22;1372;47.956;7.830;2024-03-29T06:19:37;11.70;99.90
2729;DHT22;1372;47.956;7.830;2024-03-29T06:22:05;11.70;99.90
2729;DHT22;1372;47.956;7.830;2024-03-29T06:24:37;11.70;99.90
2729;DHT22;1372;47.956;7.830;2024-03-29T06:27:06;11.50;99.90
2729;DHT22;1372;47.956;7.830;2024-03-29T06:29:34;11.30;99.90
2729;DHT22;1372;47.956;7.830;2024-03-29T06:32:02;11.10;99.90
2729;DHT22;1372;47.956;7.830;2024-03-29T06:34:31;11.00;99.90
2729;DHT22;1372;47.956;7.830;2024-03-29T06:36:59;10.90;99.90
2729;DHT22;1372;47.956;7.830;2024-03-29T06:39:27;10.80;99.90
2729;DHT22;1372;47.956;7.830;2024-03-29T06:41:57;10.70;99.90
2729;DHT22;1372;47.956;7.830;2024-03-29T06:44:25;10.70;99.90
2729;DHT22;1372;47.956;7.830;2024-03-29T06:46:53;10.70;99.90
2729;DHT22;1372;47.956;7.830;2024-03-29T06:49:21;10.60;99.90
2729;DHT22;1372;47.956;7.830;2024-03-29T06:51:49;10.60;99.90
2729;DHT22;1372;47.956;7.830;2024-03-29T06:54:18;10.50;99.90
2729;DHT22;1372;47.956;7.830;2024-03-29T06:56:48;10.40;99.90
2729;DHT22;1372;47.956;7.830;2024-03-29T06:59:18;10.40;99.90
2729;DHT22;1372;47.956;7.830;2024-03-29T07:01:47;10.40;99.90
2729;DHT22;1372;47.956;7.830;2024-03-29T07:04:18;10.40;99.90
2729;DHT22;1372;47.956;7.830;2024-03-29T07:06:47;10.40;99.90
2729;DHT22;1372;47.956;7.830;2024-03-29T07:09:17;10.50;99.90
2729;DHT22;1372;47.956;7.830;2024-03-29T07:11:46;10.40;99.90
2729;DHT22;1372;47.956;7.830;2024-03-29T07:14:14;10.40;99.90
2729;DHT22;1372;47.956;7.830;2024-03-29T07:16:44;10.50;99.90
2729;DHT22;1372;47.956;7.830;2024-03-29T07:19:13;10.50;99.90
2729;DHT22;1372;47.956;7.830;2024-03-29T07:21:43;10.50;99.90
2729;DHT22;1372;47.956;7.830;2024-03-29T07:24:11;10.50;99.90
2729;DHT22;1372;47.956;7.830;2024-03-29T07:26:39;10.40;99.90
2729;DHT22;1372;47.956;7.830;2024-03-29T07:29:07;10.50;99.90
2729;DHT22;1372;47.956;7.830;2024-03-29T07:31:36;10.50;99.90
2729;DHT22;1372;47.956;7.830;2024-03-29T07:34:05;10.50;99.90
2729;DHT22;1372;47.956;7.830;2024-03-29T07:36:32;10.60;99.90
2729;DHT22;1372;47.956;7.830;2024-03-29T07:39:02;10.60;99.90
2729;DHT22;1372;47.956;7.830;2024-03-29T07:41:31;10.60;99.90
2729;DHT22;1372;47.956;7.830;2024-03-29T07:43:59;10.70;99.90
2729;DHT22;1372;47.956;7.830;2024-03-29T07:46:34;10.80;99.90
2729;DHT22;1372;47.956;7.830;2024-03-29T07:49:07;10.90;99.90
2729;DHT22;1372;47.956;7.830;2024-03-29T07:51:35;11.10;99.90
2729;DHT22;1372;47.956;7.830;2024-03-29T07:54:03;11.30;99.90
2729;DHT22;1372;47.956;7.830;2024-03-29T07:56:31;11.40;99.90
2729;DHT22;1372;47.956;7.830;2024-03-29T07:58:59;11.50;99.90
2729;DHT22;1372;47.956;7.830;2024-03-29T08:01:27;11.70;99.90
2729;DHT22;1372;47.956;7.830;2024-03-29T08:03:55;11.80;99.90
2729;DHT22;1372;47.956;7.830;2024-03-29T08:06:25;11.90;99.90
2729;DHT22;1372;47.956;7.830;2024-03-29T08:08:55;12.00;99.90
2729;DHT22;1372;47.956;7.830;2024-03-29T08:11:23;12.10;99.90
2729;DHT22;1372;47.956;7.830;2024-03-29T08:13:51;12.20;99.90
2729;DHT22;1372;47.956;7.830;2024-03-29T08:16:19;12.10;99.90
2729;DHT22;1372;47.956;7.830;2024-03-29T08:18:47;12.10;99.90
2729;DHT22;1372;47.956;7.830;2024-03-29T08:21:16;12.10;99.90
2729;DHT22;1372;47.956;7.830;2024-03-29T08:23:46;12.10;99.90
2729;DHT22;1372;47.956;7.830;2024-03-29T08:26:14;12.00;99.90
2729;DHT22;1372;47.956;7.830;2024-03-29T08:28:45;12.00;99.90
2729;DHT22;1372;47.956;7.830;2024-03-29T08:31:13;12.00;99.90
2729;DHT22;1372;47.956;7.830;2024-03-29T08:33:41;12.10;99.90
2729;DHT22;1372;47.956;7.830;2024-03-29T08:36:10;12.10;99.90
2729;DHT22;1372;47.956;7.830;2024-03-29T08:38:38;12.10;99.90
2729;DHT22;1372;47.956;7.830;2024-03-29T08:41:10;12.20;99.90
2729;DHT22;1372;47.956;7.830;2024-03-29T08:43:38;12.20;99.90
2729;DHT22;1372;47.956;7.830;2024-03-29T08:46:06;12.30;99.90
2729;DHT22;1372;47.956;7.830;2024-03-29T08:48:35;12.40;99.90
2729;DHT22;1372;47.956;7.830;2024-03-29T08:51:06;12.40;99.90
2729;DHT22;1372;47.956;7.830;2024-03-29T08:53:34;12.40;99.90
2729;DHT22;1372;47.956;7.830;2024-03-29T08:56:02;12.50;99.90
2729;DHT22;1372;47.956;7.830;2024-03-29T08:58:32;12.50;99.90
2729;DHT22;1372;47.956;7.830;2024-03-29T09:01:00;12.60;99.90
2729;DHT22;1372;47.956;7.830;2024-03-29T09:03:31;12.70;99.90
2729;DHT22;1372;47.956;7.830;2024-03-29T09:05:59;12.70;99.90
2729;DHT22;1372;47.956;7.830;2024-03-29T09:08:27;12.80;99.90
2729;DHT22;1372;47.956;7.830;2024-03-29T09:10:55;12.80;99.90
2729;DHT22;1372;47.956;7.830;2024-03-29T09:13:23;12.90;99.90
2729;DHT22;1372;47.956;7.830;2024-03-29T09:15:52;12.90;99.90
2729;DHT22;1372;47.956;7.830;2024-03-29T09:18:20;13.00;99.90
2729;DHT22;1372;47.956;7.830;2024-03-29T09:20:59;13.00;99.90
2729;DHT22;1372;47.956;7.830;2024-03-29T09:23:28;13.10;99.90
2729;DHT22;1372;47.956;7.830;2024-03-29T09:25:56;13.10;99.90
2729;DHT22;1372;47.956;7.830;2024-03-29T09:28:25;13.20;99.90
2729;DHT22;1372;47.956;7.830;2024-03-29T09:30:59;13.20;99.90
2729;DHT22;1372;47.956;7.830;2024-03-29T09:33:28;13.30;99.90
2729;DHT22;1372;47.956;7.830;2024-03-29T09:35:56;13.50;99.90
2729;DHT22;1372;47.956;7.830;2024-03-29T09:38:25;13.50;99.90
2729;DHT22;1372;47.956;7.830;2024-03-29T09:41:01;13.60;99.90
2729;DHT22;1372;47.956;7.830;2024-03-29T09:43:36;13.70;99.90
2729;DHT22;1372;47.956;7.830;2024-03-29T09:46:08;13.80;99.90
2729;DHT22;1372;47.956;7.830;2024-03-29T09:48:37;13.90;99.90
2729;DHT22;1372;47.956;7.830;2024-03-29T09:51:05;13.90;99.90
2729;DHT22;1372;47.956;7.830;2024-03-29T09:53:35;13.90;99.90
2729;DHT22;1372;47.956;7.830;2024-03-29T09:56:05;14.00;99.90
2729;DHT22;1372;47.956;7.830;2024-03-29T09:58:34;14.10;99.90
2729;DHT22;1372;47.956;7.830;2024-03-29T10:01:04;14.20;99.90
2729;DHT22;1372;47.956;7.830;2024-03-29T10:03:38;14.30;99.90
2729;DHT22;1372;47.956;7.830;2024-03-29T10:06:08;14.40;99.90
2729;DHT22;1372;47.956;7.830;2024-03-29T10:08:39;14.40;99.90
2729;DHT22;1372;47.956;7.830;2024-03-29T10:11:07;14.40;99.90
2729;DHT22;1372;47.956;7.830;2024-03-29T10:13:35;14.40;99.90
2729;DHT22;1372;47.956;7.830;2024-03-29T10:16:04;14.50;99.90
2729;DHT22;1372;47.956;7.830;2024-03-29T10:18:34;14.60;99.90
2729;DHT22;1372;47.956;7.830;2024-03-29T10:21:03;14.70;99.90
2729;DHT22;1372;47.956;7.830;2024-03-29T10:23:33;14.70;99.90
2729;DHT22;1372;47.956;7.830;2024-03-29T10:26:02;14.70;99.90
2729;DHT22;1372;47.956;7.830;2024-03-29T10:28:32;14.70;99.90
2729;DHT22;1372;47.956;7.830;2024-03-29T10:31:02;14.70;99.90
2729;DHT22;1372;47.956;7.830;2024-03-29T10:33:32;14.80;99.90
2729;DHT22;1372;47.956;7.830;2024-03-29T10:36:03;14.70;99.90
2729;DHT22;1372;47.956;7.830;2024-03-29T10:38:32;14.70;99.90
2729;DHT22;1372;47.956;7.830;2024-03-29T10:41:03;14.80;99.90
2729;DHT22;1372;47.956;7.830;2024-03-29T10:43:33;14.80;99.90
2729;DHT22;1372;47.956;7.830;2024-03-29T10:46:01;14.80;99.90
2729;DHT22;1372;47.956;7.830;2024-03-29T10:48:33;14.80;99.90
2729;DHT22;1372;47.956;7.830;2024-03-29T10:51:03;14.90;99.90
2729;DHT22;1372;47.956;7.830;2024-03-29T10:53:31;14.90;99.90
2729;DHT22;1372;47.956;7.830;2024-03-29T10:56:00;14.90;99.90
2729;DHT22;1372;47.956;7.830;2024-03-29T10:58:30;14.90;99.90
2729;DHT22;1372;47.956;7.830;2024-03-29T11:00:59;15.00;99.90
2729;DHT22;1372;47.956;7.830;2024-03-29T11:03:35;15.10;99.90
2729;DHT22;1372;47.956;7.830;2024-03-29T11:06:08;15.20;99.90
2729;DHT22;1372;47.956;7.830;2024-03-29T11:08:40;15.30;99.90
2729;DHT22;1372;47.956;7.830;2024-03-29T11:11:12;15.30;99.90
2729;DHT22;1372;47.956;7.830;2024-03-29T11:13:47;15.30;99.90
2729;DHT22;1372;47.956;7.830;2024-03-29T11:16:18;15.30;99.90
2729;DHT22;1372;47.956;7.830;2024-03-29T11:18:48;15.40;99.90
2729;DHT22;1372;47.956;7.830;2024-03-29T11:21:18;15.40;99.90
2729;DHT22;1372;47.956;7.830;2024-03-29T11:23:48;15.50;99.90
2729;DHT22;1372;47.956;7.830;2024-03-29T11:26:18;15.50;99.90
2729;DHT22;1372;47.956;7.830;2024-03-29T11:28:49;15.50;99.90
2729;DHT22;1372;47.956;7.830;2024-03-29T11:31:21;15.60;99.90
2729;DHT22;1372;47.956;7.830;2024-03-29T11:33:57;15.70;99.90
2729;DHT22;1372;47.956;7.830;2024-03-29T11:36:28;15.70;99.90
2729;DHT22;1372;47.956;7.830;2024-03-29T11:38:58;15.60;99.90
2729;DHT22;1372;47.956;7.830;2024-03-29T11:41:27;15.50;99.90
2729;DHT22;1372;47.956;7.830;2024-03-29T11:43:58;15.50;99.90
2729;DHT22;1372;47.956;7.830;2024-03-29T11:46:26;15.40;99.90
2729;DHT22;1372;47.956;7.830;2024-03-29T11:48:57;15.40;99.90
2729;DHT22;1372;47.956;7.830;2024-03-29T11:51:25;15.40;99.90
2729;DHT22;1372;47.956;7.830;2024-03-29T11:53:54;15.40;99.90
2729;DHT22;1372;47.956;7.830;2024-03-29T11:56:23;15.50;99.90
2729;DHT22;1372;47.956;7.830;2024-03-29T11:58:51;15.70;99.90
2729;DHT22;1372;47.956;7.830;2024-03-29T12:01:20;16.00;99.90
2729;DHT22;1372;47.956;7.830;2024-03-29T12:03:48;16.10;99.90
2729;DHT22;1372;47.956;7.830;2024-03-29T12:06:19;16.40;99.90
2729;DHT22;1372;47.956;7.830;2024-03-29T12:08:48;16.50;99.90
2729;DHT22;1372;47.956;7.830;2024-03-29T12:11:16;16.50;99.90
2729;DHT22;1372;47.956;7.830;2024-03-29T12:13:44;16.50;99.90
2729;DHT22;1372;47.956;7.830;2024-03-29T12:16:12;16.50;99.90
2729;DHT22;1372;47.956;7.830;2024-03-29T12:18:40;16.50;99.90
2729;DHT22;1372;47.956;7.830;2024-03-29T12:21:09;16.60;99.90
2729;DHT22;1372;47.956;7.830;2024-03-29T12:23:48;16.70;99.90
2729;DHT22;1372;47.956;7.830;2024-03-29T12:26:17;16.70;99.90
2729;DHT22;1372;47.956;7.830;2024-03-29T12:28:49;16.80;99.90
2729;DHT22;1372;47.956;7.830;2024-03-29T12:31:17;17.00;99.90
2729;DHT22;1372;47.956;7.830;2024-03-29T12:33:51;17.00;99.90
2729;DHT22;1372;47.956;7.830;2024-03-29T12:36:23;17.00;99.90
2729;DHT22;1372;47.956;7.830;2024-03-29T12:38:55;17.20;99.90
2729;DHT22;1372;47.956;7.830;2024-03-29T12:41:25;17.30;99.90
2729;DHT22;1372;47.956;7.830;2024-03-29T12:43:58;17.30;99.90
2729;DHT22;1372;47.956;7.830;2024-03-29T12:46:26;17.20;99.90
2729;DHT22;1372;47.956;7.830;2024-03-29T12:48:58;17.30;99.90
2729;DHT22;1372;47.956;7.830;2024-03-29T12:51:27;17.20;99.90
2729;DHT22;1372;47.956;7.830;2024-03-29T12:54:01;17.10;99.90
2729;DHT22;1372;47.956;7.830;2024-03-29T12:56:33;17.20;99.90
2729;DHT22;1372;47.956;7.830;2024-03-29T12:59:02;17.30;99.90
2729;DHT22;1372;47.956;7.830;2024-03-29T13:01:30;17.40;99.90
2729;DHT22;1372;47.956;7.830;2024-03-29T13:03:58;17.30;99.90
2729;DHT22;1372;47.956;7.830;2024-03-29T13:06:26;17.30;99.90
2729;DHT22;1372;47.956;7.830;2024-03-29T13:08:54;17.40;99.90
2729;DHT22;1372;47.956;7.830;2024-03-29T13:11:24;17.40;99.90
2729;DHT22;1372;47.956;7.830;2024-03-29T13:13:54;17.50;99.90
2729;DHT22;1372;47.956;7.830;2024-03-29T13:16:22;17.60;99.90
2729;DHT22;1372;47.956;7.830;2024-03-29T13:18:50;17.80;99.90
2729;DHT22;1372;47.956;7.830;2024-03-29T13:21:19;17.80;99.90
2729;DHT22;1372;47.956;7.830;2024-03-29T13:23:46;17.90;99.90
2729;DHT22;1372;47.956;7.830;2024-03-29T13:26:14;18.00;99.90
2729;DHT22;1372;47.956;7.830;2024-03-29T13:28:44;18.00;99.90
2729;DHT22;1372;47.956;7.830;2024-03-29T13:31:12;18.00;99.90
2729;DHT22;1372;47.956;7.830;2024-03-29T13:33:40;18.00;99.90
2729;DHT22;1372;47.956;7.830;2024-03-29T13:36:08;18.10;99.90
2729;DHT22;1372;47.956;7.830;2024-03-29T13:38:36;18.10;99.90
2729;DHT22;1372;47.956;7.830;2024-03-29T13:41:05;18.20;99.90
2729;DHT22;1372;47.956;7.830;2024-03-29T13:43:35;18.30;99.90
2729;DHT22;1372;47.956;7.830;2024-03-29T13:46:12;18.30;99.90
2729;DHT22;1372;47.956;7.830;2024-03-29T13:48:40;18.40;99.90
2729;DHT22;1372;47.956;7.830;2024-03-29T13:51:12;18.40;99.90
2729;DHT22;1372;47.956;7.830;2024-03-29T13:53:42;18.50;99.90
2729;DHT22;1372;47.956;7.830;2024-03-29T13:56:09;18.50;99.90
2729;DHT22;1372;47.956;7.830;2024-03-29T13:58:37;18.50;99.90
2729;DHT22;1372;47.956;7.830;2024-03-29T14:01:05;18.70;99.90
2729;DHT22;1372;47.956;7.830;2024-03-29T14:03:35;18.80;99.90
2729;DHT22;1372;47.956;7.830;2024-03-29T14:06:03;18.70;99.90
2729;DHT22;1372;47.956;7.830;2024-03-29T14:12:51;18.50;99.90
2729;DHT22;1372;47.956;7.830;2024-03-29T14:15:20;18.40;99.90
2729;DHT22;1372;47.956;7.830;2024-03-29T14:17:48;18.40;99.90
2729;DHT22;1372;47.956;7.830;2024-03-29T14:20:19;18.40;99.90
2729;DHT22;1372;47.956;7.830;2024-03-29T14:22:48;18.50;99.90
2729;DHT22;1372;47.956;7.830;2024-03-29T14:25:20;18.60;99.90
2729;DHT22;1372;47.956;7.830;2024-03-29T14:27:49;18.60;99.90
2729;DHT22;1372;47.956;7.830;2024-03-29T14:30:23;18.70;99.90
2729;DHT22;1372;47.956;7.830;2024-03-29T14:32:52;18.70;99.90
2729;DHT22;1372;47.956;7.830;2024-03-29T14:35:22;18.60;99.90
2729;DHT22;1372;47.956;7.830;2024-03-29T14:37:50;18.60;99.90
2729;DHT22;1372;47.956;7.830;2024-03-29T14:40:18;18.60;99.90
2729;DHT22;1372;47.956;7.830;2024-03-29T14:42:47;18.50;99.90
2729;DHT22;1372;47.956;7.830;2024-03-29T14:45:15;18.40;99.90
2729;DHT22;1372;47.956;7.830;2024-03-29T14:47:43;18.40;99.90
2729;DHT22;1372;47.956;7.830;2024-03-29T14:50:12;18.30;99.90
2729;DHT22;1372;47.956;7.830;2024-03-29T14:52:41;18.30;99.90
2729;DHT22;1372;47.956;7.830;2024-03-29T14:55:09;18.30;99.90
2729;DHT22;1372;47.956;7.830;2024-03-29T14:57:38;18.40;99.90
2729;DHT22;1372;47.956;7.830;2024-03-29T15:00:07;18.40;99.90
2729;DHT22;1372;47.956;7.830;2024-03-29T15:02:36;18.50;99.90
2729;DHT22;1372;47.956;7.830;2024-03-29T15:05:05;18.60;99.90
2729;DHT22;1372;47.956;7.830;2024-03-29T15:07:34;18.60;99.90
2729;DHT22;1372;47.956;7.830;2024-03-29T15:10:04;18.70;99.90
2729;DHT22;1372;47.956;7.830;2024-03-29T15:12:36;18.70;99.90
2729;DHT22;1372;47.956;7.830;2024-03-29T15:15:06;18.70;99.90
2729;DHT22;1372;47.956;7.830;2024-03-29T15:17:34;18.70;99.90
2729;DHT22;1372;47.956;7.830;2024-03-29T15:20:03;18.70;99.90
2729;DHT22;1372;47.956;7.830;2024-03-29T15:22:33;18.60;99.90
2729;DHT22;1372;47.956;7.830;2024-03-29T15:25:03;18.50;99.90
2729;DHT22;1372;47.956;7.830;2024-03-29T15:27:31;18.40;99.90
2729;DHT22;1372;47.956;7.830;2024-03-29T15:30:14;18.40;99.90
2729;DHT22;1372;47.956;7.830;2024-03-29T15:32:42;18.40;99.90
2729;DHT22;1372;47.956;7.830;2024-03-29T15:35:10;18.30;99.90
2729;DHT22;1372;47.956;7.830;2024-03-29T15:37:38;18.20;99.90
2729;DHT22;1372;47.956;7.830;2024-03-29T15:40:09;18.10;99.90
2729;DHT22;1372;47.956;7.830;2024-03-29T15:42:37;18.00;99.90
2729;DHT22;1372;47.956;7.830;2024-03-29T15:45:08;18.00;99.90
2729;DHT22;1372;47.956;7.830;2024-03-29T15:47:37;17.90;99.90
2729;DHT22;1372;47.956;7.830;2024-03-29T15:50:08;17.90;99.90
2729;DHT22;1372;47.956;7.830;2024-03-29T15:52:36;17.80;99.90
2729;DHT22;1372;47.956;7.830;2024-03-29T15:55:05;17.80;99.90
2729;DHT22;1372;47.956;7.830;2024-03-29T15:57:35;17.80;99.90
2729;DHT22;1372;47.956;7.830;2024-03-29T16:00:03;17.70;99.90
2729;DHT22;1372;47.956;7.830;2024-03-29T16:02:38;17.70;99.90
2729;DHT22;1372;47.956;7.830;2024-03-29T16:05:13;17.60;99.90
2729;DHT22;1372;47.956;7.830;2024-03-29T16:07:42;17.60;99.90
2729;DHT22;1372;47.956;7.830;2024-03-29T16:10:12;17.50;99.90
2729;DHT22;1372;47.956;7.830;2024-03-29T16:12:42;17.40;99.90
2729;DHT22;1372;47.956;7.830;2024-03-29T16:15:10;17.40;99.90
2729;DHT22;1372;47.956;7.830;2024-03-29T16:17:38;17.30;99.90
2729;DHT22;1372;47.956;7.830;2024-03-29T16:20:07;17.20;99.90